createdAt,value
2023-01-27T00:03:10.692Z,15.125
2023-01-27T00:06:53.715Z,15.25
2023-01-27T00:10:36.983Z,15.375
2023-01-27T00:14:19.587Z,15.312
2023-01-27T00:18:02.836Z,15.25
2023-01-27T00:21:45.796Z,15.187
2023-01-27T00:25:28.582Z,15.125
2023-01-27T00:29:12.337Z,15.125
2023-01-27T00:32:56.095Z,15.062
2023-01-27T00:36:39.159Z,15.0
2023-01-27T00:40:22.286Z,15.0
2023-01-27T00:44:05.156Z,14.937
2023-01-27T00:47:48.199Z,15.0
2023-01-27T00:51:30.821Z,15.187
2023-01-27T00:55:13.557Z,15.312
2023-01-27T00:58:56.476Z,15.375
2023-01-27T01:03:10.833Z,15.375
2023-01-27T01:06:53.971Z,15.312
2023-01-27T01:10:37.111Z,15.25
2023-01-27T01:14:22.880Z,15.187
2023-01-27T01:18:06.116Z,15.125
2023-01-27T01:21:49.396Z,15.062
2023-01-27T01:25:32.997Z,15.062
2023-01-27T01:29:15.496Z,15.0
2023-01-27T01:32:59.592Z,14.937
2023-01-27T01:36:42.486Z,14.937
2023-01-27T01:40:25.896Z,15.125
2023-01-27T01:44:09.506Z,15.312
2023-01-27T01:47:52.226Z,15.437
2023-01-27T01:51:35.400Z,15.437
2023-01-27T01:55:17.982Z,15.437
2023-01-27T01:59:04.488Z,15.437
2023-01-27T02:03:12.384Z,15.375
2023-01-27T02:06:55.335Z,15.375
2023-01-27T02:10:38.213Z,15.312
2023-01-27T02:14:21.405Z,15.25
2023-01-27T02:18:05.643Z,15.25
2023-01-27T02:21:49.739Z,15.187
2023-01-27T02:25:33.289Z,15.125
2023-01-27T02:29:16.224Z,15.062
2023-01-27T02:33:01.145Z,15.062
2023-01-27T02:36:45.044Z,15.0
2023-01-27T02:40:28.203Z,15.0
2023-01-27T02:44:10.911Z,14.937
2023-01-27T02:47:54.946Z,14.937
2023-01-27T02:51:37.548Z,15.062
2023-01-27T02:55:20.621Z,15.25
2023-01-27T02:59:03.712Z,15.312
2023-01-27T03:03:10.093Z,15.312
2023-01-27T03:06:53.855Z,15.25
2023-01-27T03:10:36.903Z,15.187
2023-01-27T03:14:19.214Z,15.187
2023-01-27T03:18:05.984Z,15.187
2023-01-27T03:21:48.694Z,15.125
2023-01-27T03:25:32.088Z,15.062
2023-01-27T03:29:15.156Z,15.0
2023-01-27T03:32:59.436Z,14.937
2023-01-27T03:36:42.820Z,14.937
2023-01-27T03:40:25.799Z,15.0
2023-01-27T03:44:07.994Z,15.187
2023-01-27T03:47:51.729Z,15.312
2023-01-27T03:51:34.568Z,15.312
2023-01-27T03:55:17.326Z,15.312
2023-01-27T03:59:00.896Z,15.312
2023-01-27T04:03:10.159Z,15.25
2023-01-27T04:06:53.867Z,15.187
2023-01-27T04:10:37.270Z,15.125
2023-01-27T04:14:22.908Z,15.125
2023-01-27T04:18:06.084Z,15.062
2023-01-27T04:21:48.544Z,15.0
2023-01-27T04:25:33.924Z,14.937
2023-01-27T04:29:32.846Z,14.937
2023-01-27T04:33:17.798Z,15.062
2023-01-27T04:37:14.718Z,15.25
2023-01-27T04:40:59.222Z,15.375
2023-01-27T04:44:42.844Z,15.312
2023-01-27T04:48:26.472Z,15.25
2023-01-27T04:52:09.107Z,15.25
2023-01-27T04:55:52.424Z,15.125
2023-01-27T04:59:34.927Z,15.062
2023-01-27T05:03:09.203Z,15.0
2023-01-27T05:08:38.590Z,14.937
2023-01-27T05:12:22.417Z,14.937
2023-01-27T05:16:08.900Z,15.062
2023-01-27T05:19:53.067Z,15.25
2023-01-27T05:23:37.742Z,15.312
2023-01-27T05:27:21.729Z,15.375
2023-01-27T05:31:06.905Z,15.312
2023-01-27T05:34:51.300Z,15.312
2023-01-27T05:38:35.263Z,15.187
2023-01-27T05:42:19.144Z,15.125
2023-01-27T05:46:03.319Z,15.062
2023-01-27T05:49:46.955Z,15.0
2023-01-27T05:53:30.706Z,14.937
2023-01-27T05:57:16.374Z,15.0
2023-01-27T06:03:13.392Z,15.187
2023-01-27T06:06:57.572Z,15.25
2023-01-27T06:10:43.573Z,15.25
2023-01-27T06:14:27.637Z,15.25
2023-01-27T06:18:13.725Z,15.187
2023-01-27T06:21:57.503Z,15.062
2023-01-27T06:25:44.966Z,15.0
2023-01-27T06:29:28.924Z,14.937
2023-01-27T06:33:14.826Z,15.0
2023-01-27T06:36:59.506Z,15.125
2023-01-27T06:40:46.881Z,15.187
2023-01-27T06:44:30.632Z,15.25
2023-01-27T06:48:14.942Z,15.25
2023-01-27T06:51:59.709Z,15.187
2023-01-27T06:55:43.168Z,15.125
2023-01-27T06:59:27.405Z,15.062
2023-01-27T07:03:11.484Z,15.0
2023-01-27T07:06:55.437Z,14.937
2023-01-27T07:10:43.141Z,15.0
2023-01-27T07:14:26.894Z,15.125
2023-01-27T07:18:11.564Z,15.312
2023-01-27T07:21:56.616Z,15.312
2023-01-27T07:25:40.926Z,15.312
2023-01-27T07:29:24.739Z,15.25
2023-01-27T07:33:12.495Z,15.187
2023-01-27T07:36:56.265Z,15.125
2023-01-27T07:40:40.930Z,15.062
2023-01-27T07:44:25.073Z,15.0
2023-01-27T07:48:09.182Z,14.937
2023-01-27T07:51:56.410Z,15.0
2023-01-27T07:55:42.868Z,15.125
2023-01-27T07:59:26.425Z,15.25
2023-01-27T08:03:12.960Z,15.312
2023-01-27T08:06:57.098Z,15.312
2023-01-27T08:10:44.803Z,15.187
2023-01-27T08:14:28.590Z,15.125
2023-01-27T08:18:16.620Z,15.062
2023-01-27T08:22:00.761Z,15.0
2023-01-27T08:25:44.835Z,14.937
2023-01-27T08:29:28.377Z,15.0
2023-01-27T08:33:13.624Z,15.062
2023-01-27T08:36:57.350Z,15.25
2023-01-27T08:40:41.435Z,15.25
2023-01-27T08:44:25.237Z,15.25
2023-01-27T08:48:12.294Z,15.187
2023-01-27T08:51:56.512Z,15.125
2023-01-27T08:55:40.021Z,15.062
2023-01-27T08:59:24.833Z,15.0
2023-01-27T09:03:13.174Z,14.937
2023-01-27T09:06:56.742Z,15.0
2023-01-27T09:11:02.512Z,15.062
2023-01-27T09:14:46.385Z,15.25
2023-01-27T09:18:33.229Z,15.312
2023-01-27T09:22:16.791Z,15.312
2023-01-27T09:26:00.508Z,15.25
2023-01-27T09:29:58.424Z,15.187
2023-01-27T09:33:44.828Z,15.125
2023-01-27T09:37:28.651Z,15.062
2023-01-27T09:41:12.345Z,15.0
2023-01-27T09:44:58.097Z,14.937
2023-01-27T09:48:42.298Z,15.0
2023-01-27T09:52:41.838Z,15.125
2023-01-27T09:56:33.151Z,15.25
2023-01-27T10:03:11.194Z,15.25
2023-01-27T10:06:55.794Z,15.187
2023-01-27T10:10:40.079Z,15.125
2023-01-27T10:14:23.749Z,15.0
2023-01-27T10:18:08.072Z,14.937
2023-01-27T10:21:52.279Z,15.0
2023-01-27T10:25:38.423Z,15.187
2023-01-27T10:29:22.608Z,15.25
2023-01-27T10:33:07.781Z,15.25
2023-01-27T10:36:51.722Z,15.25
2023-01-27T10:40:36.102Z,15.25
2023-01-27T10:44:22.341Z,15.187
2023-01-27T10:48:06.681Z,15.187
2023-01-27T10:51:51.338Z,15.25
2023-01-27T10:55:35.016Z,15.312
2023-01-27T10:59:18.847Z,15.375
2023-01-27T11:04:14.365Z,15.375
2023-01-27T11:07:58.469Z,15.375
2023-01-27T11:11:42.777Z,15.312
2023-01-27T11:15:28.517Z,15.187
2023-01-27T11:19:12.684Z,15.062
2023-01-27T11:22:58.729Z,14.937
2023-01-27T11:26:44.704Z,14.875
2023-01-27T11:30:29.071Z,14.812
2023-01-27T11:34:17.616Z,15.125
2023-01-27T11:38:15.077Z,15.437
2023-01-27T11:41:59.756Z,15.562
2023-01-27T11:45:43.756Z,15.625
2023-01-27T11:49:27.820Z,15.562
2023-01-27T11:53:12.010Z,15.437
2023-01-27T11:56:57.558Z,15.375
2023-01-27T12:03:11.995Z,15.312
2023-01-27T12:06:56.608Z,15.187
2023-01-27T12:10:41.387Z,15.187
2023-01-27T12:14:25.236Z,15.187
2023-01-27T12:18:09.414Z,15.125
2023-01-27T12:21:53.599Z,15.125
2023-01-27T12:25:37.906Z,15.062
2023-01-27T12:29:23.113Z,15.0
2023-01-27T12:33:08.626Z,14.937
2023-01-27T12:36:55.045Z,14.937
2023-01-27T12:40:39.399Z,15.062
2023-01-27T12:44:23.009Z,15.25
2023-01-27T12:48:07.409Z,15.312
2023-01-27T12:51:51.969Z,15.375
2023-01-27T12:55:36.078Z,15.312
2023-01-27T12:59:19.804Z,15.25
2023-01-27T13:03:10.577Z,15.125
2023-01-27T13:06:53.704Z,15.125
2023-01-27T13:10:40.875Z,15.0
2023-01-27T13:14:24.191Z,14.937
2023-01-27T13:18:08.352Z,15.0
2023-01-27T13:21:52.055Z,15.062
2023-01-27T13:25:35.257Z,15.062
2023-01-27T13:29:35.644Z,15.062
2023-01-27T13:33:21.292Z,15.0
2023-01-27T13:37:03.878Z,15.062
2023-01-27T13:40:47.018Z,15.375
2023-01-27T13:44:29.754Z,15.75
2023-01-27T13:48:13.431Z,16.25
2023-01-27T13:52:00.259Z,16.5
2023-01-27T13:55:43.069Z,16.812
2023-01-27T13:59:28.341Z,17.125
2023-01-27T14:03:10.259Z,17.375
2023-01-27T14:06:53.423Z,17.562
2023-01-27T14:10:36.435Z,17.75
2023-01-27T14:14:19.470Z,17.875
2023-01-27T14:18:03.435Z,18.125
2023-01-27T14:22:17.771Z,18.125
2023-01-27T14:26:02.390Z,18.062
2023-01-27T14:29:51.987Z,17.875
2023-01-27T14:33:36.026Z,17.812
2023-01-27T14:37:20.921Z,18.0
2023-01-27T14:41:04.276Z,18.187
2023-01-27T14:45:04.516Z,18.25
2023-01-27T14:48:47.689Z,18.125
2023-01-27T14:52:30.642Z,17.812
2023-01-27T14:56:13.430Z,17.812
2023-01-27T14:59:56.638Z,17.875
2023-01-27T15:03:08.953Z,18.062
2023-01-27T15:06:52.406Z,18.125
2023-01-27T15:10:35.593Z,18.062
2023-01-27T15:14:18.099Z,17.687
2023-01-27T15:18:01.979Z,17.5
2023-01-27T15:21:45.353Z,17.25
2023-01-27T15:25:28.552Z,17.125
2023-01-27T15:29:11.417Z,17.0
2023-01-27T15:32:57.795Z,16.812
2023-01-27T15:36:40.827Z,16.687
2023-01-27T15:40:47.271Z,16.5
2023-01-27T15:44:29.955Z,16.375
2023-01-27T15:48:13.388Z,16.25
2023-01-27T15:51:56.173Z,16.062
2023-01-27T15:55:41.548Z,15.937
2023-01-27T15:59:24.011Z,15.812
2023-01-27T16:03:08.282Z,15.687
2023-01-27T16:06:51.219Z,15.625
2023-01-27T16:10:33.438Z,15.562
2023-01-27T16:14:15.741Z,15.437
2023-01-27T16:17:58.215Z,15.375
2023-01-27T16:21:43.411Z,15.312
2023-01-27T16:25:27.059Z,15.25
2023-01-27T16:29:10.094Z,15.25
2023-01-27T16:32:52.815Z,15.375
2023-01-27T16:36:36.508Z,15.625
2023-01-27T16:40:19.960Z,16.0
2023-01-27T16:44:02.529Z,16.312
2023-01-27T16:47:59.552Z,16.687
2023-01-27T16:51:42.806Z,17.25
2023-01-27T16:55:39.071Z,17.625
2023-01-27T16:59:35.895Z,17.937
2023-01-27T17:03:09.800Z,18.187
2023-01-27T17:08:42.127Z,18.25
2023-01-27T17:12:28.366Z,18.125
2023-01-27T17:16:24.505Z,17.875
2023-01-27T17:20:23.423Z,17.687
2023-01-27T17:24:06.470Z,17.812
2023-01-27T17:27:49.590Z,18.062
2023-01-27T17:31:35.088Z,18.312
2023-01-27T17:35:18.165Z,18.25
2023-01-27T17:39:00.577Z,18.062
2023-01-27T17:42:42.758Z,17.875
2023-01-27T17:46:25.936Z,17.875
2023-01-27T17:50:09.720Z,18.312
2023-01-27T17:53:53.005Z,18.75
2023-01-27T17:57:36.301Z,18.812
2023-01-27T18:03:11.035Z,18.5
2023-01-27T18:06:54.704Z,18.187
2023-01-27T18:10:39.890Z,18.0
2023-01-27T18:14:23.029Z,17.75
2023-01-27T18:18:09.339Z,17.875
2023-01-27T18:21:52.119Z,18.062
2023-01-27T18:25:36.099Z,18.187
2023-01-27T18:29:20.839Z,18.312
2023-01-27T18:33:04.968Z,18.25
2023-01-27T18:36:48.528Z,18.125
2023-01-27T18:40:32.867Z,17.937
2023-01-27T18:44:16.557Z,17.75
2023-01-27T18:48:00.992Z,17.812
2023-01-27T18:51:44.264Z,17.812
2023-01-27T18:55:27.742Z,18.062
2023-01-27T18:59:10.849Z,18.25
2023-01-27T19:03:12.080Z,18.187
2023-01-27T19:06:56.002Z,18.062
2023-01-27T19:10:38.839Z,18.0
2023-01-27T19:14:24.258Z,17.875
2023-01-27T19:18:08.628Z,17.875
2023-01-27T19:21:51.751Z,17.937
2023-01-27T19:25:35.776Z,18.25
2023-01-27T19:29:18.722Z,18.312
2023-01-27T19:33:02.738Z,18.25
2023-01-27T19:36:49.166Z,18.125
2023-01-27T19:40:32.024Z,18.0
2023-01-27T19:44:15.546Z,17.875
2023-01-27T19:47:59.656Z,17.937
2023-01-27T19:51:46.561Z,18.062
2023-01-27T19:55:29.173Z,18.062
2023-01-27T19:59:12.632Z,18.0
2023-01-27T20:03:09.929Z,17.875
2023-01-27T20:06:55.314Z,17.875
2023-01-27T20:10:39.424Z,18.0
2023-01-27T20:14:22.506Z,18.187
2023-01-27T20:18:07.256Z,18.25
2023-01-27T20:21:50.136Z,18.125
2023-01-27T20:25:33.654Z,17.937
2023-01-27T20:29:19.318Z,17.812
2023-01-27T20:33:02.439Z,17.875
2023-01-27T20:36:45.768Z,18.0
2023-01-27T20:40:31.613Z,18.125
2023-01-27T20:44:24.992Z,18.187
2023-01-27T20:48:09.385Z,18.062
2023-01-27T20:51:55.801Z,17.937
2023-01-27T20:55:39.441Z,17.875
2023-01-27T20:59:22.727Z,17.937
2023-01-27T21:03:09.064Z,18.0
2023-01-27T21:06:52.620Z,18.125
2023-01-27T21:10:35.609Z,18.125
2023-01-27T21:14:18.757Z,18.0
2023-01-27T21:18:02.763Z,17.875
2023-01-27T21:21:45.815Z,17.812
2023-01-27T21:25:29.399Z,17.937
2023-01-27T21:29:12.895Z,18.0
2023-01-27T21:32:57.155Z,18.062
2023-01-27T21:36:43.051Z,18.062
2023-01-27T21:40:26.273Z,17.937
2023-01-27T21:44:09.173Z,17.937
2023-01-27T21:47:53.239Z,18.062
2023-01-27T21:51:36.357Z,18.125
2023-01-27T21:55:21.901Z,18.187
2023-01-27T21:59:04.721Z,18.125
2023-01-27T22:03:12.703Z,18.062
2023-01-27T22:06:57.036Z,17.937
2023-01-27T22:10:40.076Z,17.812
2023-01-27T22:14:23.488Z,17.625
2023-01-27T22:18:09.638Z,17.5
2023-01-27T22:21:52.347Z,17.312
2023-01-27T22:25:36.528Z,17.187
2023-01-27T22:29:19.685Z,17.062
2023-01-27T22:33:03.208Z,16.937
2023-01-27T22:36:46.775Z,16.812
2023-01-27T22:40:29.645Z,16.75
2023-01-27T22:44:12.321Z,16.625
2023-01-27T22:47:56.779Z,16.625
2023-01-27T22:51:39.533Z,16.562
2023-01-27T22:55:26.088Z,16.5
2023-01-27T22:59:09.426Z,16.437
2023-01-27T23:03:10.276Z,16.375
2023-01-27T23:06:54.011Z,16.312
2023-01-27T23:10:37.068Z,16.312
2023-01-27T23:14:19.919Z,16.25
2023-01-27T23:18:03.493Z,16.125
2023-01-27T23:21:45.960Z,16.062
2023-01-27T23:25:31.736Z,16.0
2023-01-27T23:29:24.296Z,15.937
2023-01-27T23:33:09.396Z,15.937
2023-01-27T23:36:52.650Z,15.875
2023-01-27T23:40:50.457Z,15.812
2023-01-27T23:44:32.687Z,15.812
2023-01-27T23:48:15.750Z,15.75
2023-01-27T23:51:58.363Z,15.687
2023-01-27T23:55:41.325Z,15.687
2023-01-27T23:59:24.013Z,15.625
